Time;durP1;ratioP1;P1;durP2;ratioP2;P2;SDS_P1;SDS_P2;PMS_P1;PMS_P2;Temp;Humidity;BMP_temperature;BMP_pressure;BME280_temperature;BME280_humidity;BME280_pressure;Samples;Min_cycle;Max_cycle;Signal;HPM_P1;HPM_P2
2022/05/05 00:02:01;;;;;;;12.13;6.15;;;;;;;;;;5037515;28;20174;-65
2022/05/05 00:04:27;;;;;;;12.75;5.63;;;;;;;;;;5018470;28;20045;-64
2022/05/05 00:06:53;;;;;;;13.23;5.88;;;;;;;;;;5042211;28;20033;-65
2022/05/05 00:09:19;;;;;;;13.45;5.65;;;;;;;;;;5017679;28;20150;-65
2022/05/05 00:14:33;;;;;;;12.70;6.32;;;;;;;;;;5020210;28;20048;-65
2022/05/05 00:17:00;;;;;;;13.07;5.68;;;;;;;;;;5022947;28;20053;-65
2022/05/05 00:19:27;;;;;;;12.23;5.72;;;;;;;;;;5016556;28;20048;-65
2022/05/05 00:21:53;;;;;;;11.05;5.95;;;;;;;;;;5020370;28;20060;-65
2022/05/05 00:24:19;;;;;;;10.57;5.72;;;;;;;;;;5027970;28;20047;-65
2022/05/05 00:26:46;;;;;;;12.30;5.82;;;;;;;;;;5028511;28;20068;-65
2022/05/05 00:29:12;;;;;;;12.60;6.18;;;;;;;;;;5017028;28;20045;-65
2022/05/05 00:31:38;;;;;;;16.00;6.15;;;;;;;;;;5042588;28;20034;-65
2022/05/05 00:34:04;;;;;;;14.43;6.53;;;;;;;;;;5019270;28;20096;-65
2022/05/05 00:36:30;;;;;;;12.40;5.72;;;;;;;;;;5037282;28;20050;-65
2022/05/05 00:38:56;;;;;;;11.18;6.13;;;;;;;;;;5014878;28;20439;-65
2022/05/05 00:41:23;;;;;;;11.10;5.70;;;;;;;;;;5033492;28;20033;-65
2022/05/05 00:43:49;;;;;;;13.52;6.03;;;;;;;;;;5043247;28;20092;-65
2022/05/05 00:46:15;;;;;;;13.88;6.00;;;;;;;;;;5036872;28;20553;-64
2022/05/05 00:48:44;;;;;;;14.77;6.30;;;;;;;;;;5038430;28;20100;-64
2022/05/05 00:51:11;;;;;;;13.73;6.28;;;;;;;;;;5023989;28;20037;-64
2022/05/05 00:53:37;;;;;;;11.07;6.05;;;;;;;;;;5020292;28;20048;-64
2022/05/05 00:56:08;;;;;;;13.23;6.32;;;;;;;;;;5037921;28;20404;-65
2022/05/05 00:58:34;;;;;;;13.77;6.25;;;;;;;;;;5026755;28;20037;-65
2022/05/05 01:01:04;;;;;;;11.63;6.40;;;;;;;;;;5039495;28;20037;-65
2022/05/05 01:03:34;;;;;;;10.05;5.70;;;;;;;;;;5038714;28;20094;-65
2022/05/05 01:06:00;;;;;;;11.15;5.38;;;;;;;;;;5019508;28;20041;-65
2022/05/05 01:08:26;;;;;;;13.30;6.18;;;;;;;;;;5029577;28;20382;-64
2022/05/05 01:10:52;;;;;;;12.32;6.15;;;;;;;;;;5021561;28;20114;-64
2022/05/05 01:13:18;;;;;;;14.93;6.25;;;;;;;;;;5040100;28;20464;-64
2022/05/05 01:15:44;;;;;;;10.45;5.63;;;;;;;;;;5023585;28;20076;-65
2022/05/05 01:18:10;;;;;;;9.77;5.43;;;;;;;;;;5046650;28;20037;-64
2022/05/05 01:20:44;;;;;;;12.40;5.40;;;;;;;;;;5022116;28;20037;-65
2022/05/05 01:23:10;;;;;;;11.60;5.88;;;;;;;;;;5042785;28;20041;-65
2022/05/05 01:28:21;;;;;;;15.02;6.32;;;;;;;;;;5037205;28;20145;-65
2022/05/05 01:30:48;;;;;;;10.98;5.10;;;;;;;;;;5026209;28;20074;-65
2022/05/05 01:33:15;;;;;;;12.35;6.03;;;;;;;;;;5036461;28;20089;-65
2022/05/05 01:35:42;;;;;;;15.50;6.10;;;;;;;;;;5031778;28;20545;-65
2022/05/05 01:38:09;;;;;;;13.73;6.47;;;;;;;;;;5043755;28;20095;-65
2022/05/05 01:40:36;;;;;;;13.63;5.78;;;;;;;;;;5011185;28;20072;-65
2022/05/05 01:43:02;;;;;;;10.90;5.85;;;;;;;;;;5026277;28;20037;-65
2022/05/05 01:45:29;;;;;;;11.02;6.15;;;;;;;;;;5038169;28;20038;-65
2022/05/05 01:47:55;;;;;;;12.15;6.10;;;;;;;;;;5025114;28;20125;-65
2022/05/05 01:50:22;;;;;;;13.85;5.88;;;;;;;;;;5040655;28;20394;-64
2022/05/05 01:52:48;;;;;;;14.23;6.45;;;;;;;;;;5046286;28;20038;-65
2022/05/05 01:55:14;;;;;;;11.60;6.43;;;;;;;;;;5023022;28;20092;-65
2022/05/05 01:57:40;;;;;;;9.82;6.32;;;;;;;;;;5031357;28;20048;-64
2022/05/05 02:00:07;;;;;;;18.88;6.50;;;;;;;;;;5041824;28;20052;-65
2022/05/05 02:02:33;;;;;;;13.27;6.10;;;;;;;;;;5021095;28;20478;-65
2022/05/05 02:04:59;;;;;;;14.15;6.85;;;;;;;;;;5019006;28;20124;-65
2022/05/05 02:07:25;;;;;;;14.73;6.28;;;;;;;;;;5028139;28;20092;-65
2022/05/05 02:09:51;;;;;;;11.55;6.20;;;;;;;;;;5023603;28;20489;-65
2022/05/05 02:12:17;;;;;;;13.52;6.30;;;;;;;;;;5020673;28;20436;-65
2022/05/05 02:14:43;;;;;;;11.05;7.25;;;;;;;;;;5025644;28;20488;-65
2022/05/05 02:17:09;;;;;;;10.50;6.68;;;;;;;;;;5037094;28;20049;-65
2022/05/05 02:19:36;;;;;;;15.68;7.38;;;;;;;;;;5026443;28;20120;-65
2022/05/05 02:22:02;;;;;;;10.73;6.55;;;;;;;;;;5023582;28;20057;-65
2022/05/05 02:24:28;;;;;;;14.27;6.25;;;;;;;;;;5020872;28;20103;-65
2022/05/05 02:26:54;;;;;;;12.02;6.53;;;;;;;;;;5042927;28;20041;-65
2022/05/05 02:29:20;;;;;;;10.85;6.53;;;;;;;;;;5046054;28;20084;-64
2022/05/05 02:31:46;;;;;;;12.60;6.97;;;;;;;;;;5031446;28;20324;-65
2022/05/05 02:34:12;;;;;;;10.40;6.43;;;;;;;;;;5022521;28;20497;-65
2022/05/05 02:39:23;;;;;;;12.32;6.95;;;;;;;;;;5040771;28;20052;-65
2022/05/05 02:41:49;;;;;;;16.27;7.00;;;;;;;;;;5043444;28;20033;-65
2022/05/05 02:44:15;;;;;;;13.15;7.68;;;;;;;;;;5011383;28;20239;-65
2022/05/05 02:46:41;;;;;;;12.57;6.82;;;;;;;;;;5026770;28;20086;-65
2022/05/05 02:49:08;;;;;;;15.40;7.45;;;;;;;;;;5043512;28;20044;-65
2022/05/05 02:51:34;;;;;;;16.38;7.88;;;;;;;;;;5037698;28;20124;-65
2022/05/05 02:56:44;;;;;;;15.82;7.50;;;;;;;;;;5028143;28;20507;-65
2022/05/05 02:59:10;;;;;;;11.82;7.00;;;;;;;;;;5047381;28;20045;-65
2022/05/05 03:01:36;;;;;;;16.23;7.70;;;;;;;;;;5002325;28;20044;-65
2022/05/05 03:04:02;;;;;;;11.73;7.13;;;;;;;;;;5037969;28;20056;-65
2022/05/05 03:06:28;;;;;;;14.18;7.35;;;;;;;;;;5044651;28;20658;-65
2022/05/05 03:08:54;;;;;;;12.10;7.07;;;;;;;;;;5020616;28;20041;-65
2022/05/05 03:11:20;;;;;;;15.10;7.40;;;;;;;;;;5035179;28;20096;-65
2022/05/05 03:13:46;;;;;;;11.30;7.32;;;;;;;;;;5039191;28;20052;-65
2022/05/05 03:16:13;;;;;;;10.73;7.30;;;;;;;;;;5019642;28;20045;-65
2022/05/05 03:18:40;;;;;;;10.88;7.68;;;;;;;;;;5026015;28;20049;-65
2022/05/05 03:21:09;;;;;;;12.55;7.50;;;;;;;;;;5026518;28;20099;-65
2022/05/05 03:23:36;;;;;;;15.85;8.15;;;;;;;;;;5016123;28;20132;-64
2022/05/05 03:26:02;;;;;;;14.15;6.95;;;;;;;;;;5038984;28;20481;-65
2022/05/05 03:28:28;;;;;;;12.90;7.57;;;;;;;;;;5024587;28;20131;-65
2022/05/05 03:30:54;;;;;;;11.55;6.90;;;;;;;;;;5037896;28;20033;-65
2022/05/05 03:33:20;;;;;;;14.13;8.43;;;;;;;;;;5021795;28;20057;-64
2022/05/05 03:35:47;;;;;;;14.30;7.80;;;;;;;;;;5018453;28;20041;-65
2022/05/05 03:38:13;;;;;;;13.27;8.15;;;;;;;;;;5017139;28;20045;-65
2022/05/05 03:40:39;;;;;;;13.88;8.50;;;;;;;;;;5020170;28;20041;-65
2022/05/05 03:43:05;;;;;;;15.50;8.32;;;;;;;;;;5037944;28;20045;-65
2022/05/05 03:45:31;;;;;;;13.73;8.68;;;;;;;;;;5040285;28;20053;-65
2022/05/05 03:47:57;;;;;;;14.13;7.95;;;;;;;;;;5017533;28;20116;-65
2022/05/05 03:50:23;;;;;;;12.38;8.40;;;;;;;;;;5037008;28;20048;-65
2022/05/05 03:52:49;;;;;;;13.30;7.93;;;;;;;;;;5034389;28;20555;-61
2022/05/05 03:55:15;;;;;;;17.20;9.23;;;;;;;;;;5018626;28;20386;-62
2022/05/05 03:57:41;;;;;;;14.63;9.25;;;;;;;;;;5018727;28;20064;-61
2022/05/05 04:00:08;;;;;;;15.35;8.30;;;;;;;;;;5020118;28;20040;-61
2022/05/05 04:02:34;;;;;;;13.43;8.57;;;;;;;;;;5031980;28;20041;-62
2022/05/05 04:05:00;;;;;;;12.80;8.85;;;;;;;;;;5020167;28;20049;-61
2022/05/05 04:07:26;;;;;;;14.43;9.00;;;;;;;;;;5026446;28;20203;-61
2022/05/05 04:09:54;;;;;;;14.32;9.43;;;;;;;;;;5018608;28;20125;-62
2022/05/05 04:12:20;;;;;;;15.18;9.20;;;;;;;;;;5039324;28;20038;-61
2022/05/05 04:14:47;;;;;;;18.02;9.60;;;;;;;;;;5022110;28;20041;-64
2022/05/05 04:17:13;;;;;;;16.17;9.13;;;;;;;;;;5039620;28;20037;-65
2022/05/05 04:19:39;;;;;;;12.88;9.27;;;;;;;;;;5027933;28;20041;-65
2022/05/05 04:22:06;;;;;;;14.13;8.48;;;;;;;;;;5026905;28;20081;-65
2022/05/05 04:24:32;;;;;;;17.50;9.43;;;;;;;;;;5016408;28;20045;-64
2022/05/05 04:26:58;;;;;;;14.57;9.25;;;;;;;;;;5024752;28;20047;-65
2022/05/05 04:29:24;;;;;;;15.88;9.43;;;;;;;;;;5024955;28;20486;-65
2022/05/05 04:31:51;;;;;;;15.27;9.00;;;;;;;;;;5024956;28;20041;-65
2022/05/05 04:34:17;;;;;;;18.13;9.02;;;;;;;;;;5036433;28;20058;-65
2022/05/05 04:36:43;;;;;;;18.10;9.60;;;;;;;;;;5018661;28;20053;-65
2022/05/05 04:39:09;;;;;;;13.13;8.70;;;;;;;;;;5027714;28;20083;-65
2022/05/05 04:41:36;;;;;;;18.02;9.02;;;;;;;;;;5006961;28;20041;-65
2022/05/05 04:44:02;;;;;;;18.55;10.13;;;;;;;;;;5047397;28;20125;-65
2022/05/05 04:46:28;;;;;;;12.77;9.02;;;;;;;;;;5048022;28;20758;-65
2022/05/05 04:48:54;;;;;;;14.93;9.20;;;;;;;;;;5020504;28;20548;-65
2022/05/05 04:51:20;;;;;;;16.73;9.50;;;;;;;;;;5022359;28;20131;-65
2022/05/05 04:53:46;;;;;;;15.18;9.60;;;;;;;;;;5036937;28;20098;-66
2022/05/05 04:56:14;;;;;;;15.25;9.90;;;;;;;;;;5026544;28;20061;-65
2022/05/05 04:58:41;;;;;;;16.52;9.50;;;;;;;;;;5019167;28;20052;-65
2022/05/05 05:01:07;;;;;;;15.43;9.15;;;;;;;;;;5041926;28;20404;-65
2022/05/05 05:03:33;;;;;;;14.73;9.63;;;;;;;;;;5043592;28;20393;-65
2022/05/05 05:05:59;;;;;;;13.98;9.52;;;;;;;;;;5025780;28;20122;-65
2022/05/05 05:08:25;;;;;;;16.35;9.05;;;;;;;;;;5036048;28;20048;-65
2022/05/05 05:10:51;;;;;;;15.68;9.40;;;;;;;;;;5043703;28;20508;-65
2022/05/05 05:13:17;;;;;;;18.33;10.07;;;;;;;;;;5042526;28;20045;-65
2022/05/05 05:15:43;;;;;;;17.40;9.23;;;;;;;;;;5019833;28;20049;-65
2022/05/05 05:18:09;;;;;;;16.73;9.88;;;;;;;;;;5021362;28;20127;-65
2022/05/05 05:20:35;;;;;;;14.75;9.60;;;;;;;;;;5021906;28;20073;-65
2022/05/05 05:23:02;;;;;;;14.27;10.18;;;;;;;;;;5043255;28;20041;-65
2022/05/05 05:25:28;;;;;;;17.17;9.48;;;;;;;;;;5036836;28;20470;-65
2022/05/05 05:27:54;;;;;;;15.48;9.75;;;;;;;;;;5019399;28;20044;-65
2022/05/05 05:30:20;;;;;;;17.52;10.77;;;;;;;;;;5030567;28;20041;-65
2022/05/05 05:32:46;;;;;;;23.13;10.90;;;;;;;;;;5048364;28;20053;-64
2022/05/05 05:35:12;;;;;;;16.60;10.70;;;;;;;;;;5048068;28;20426;-64
2022/05/05 05:37:38;;;;;;;14.73;10.15;;;;;;;;;;5044493;28;20037;-64
2022/05/05 05:40:04;;;;;;;17.17;10.88;;;;;;;;;;5036378;28;20450;-65
2022/05/05 05:42:30;;;;;;;15.85;10.43;;;;;;;;;;5043637;28;20043;-65
2022/05/05 05:44:57;;;;;;;20.67;10.68;;;;;;;;;;5025526;28;20053;-65
2022/05/05 05:47:23;;;;;;;16.80;10.38;;;;;;;;;;5026440;28;20037;-65
2022/05/05 05:49:49;;;;;;;16.48;10.40;;;;;;;;;;5007629;28;20087;-65
2022/05/05 05:52:15;;;;;;;18.55;11.13;;;;;;;;;;5023801;28;20101;-65
2022/05/05 05:54:41;;;;;;;18.90;10.85;;;;;;;;;;5046337;28;20098;-65
2022/05/05 05:57:07;;;;;;;21.88;10.88;;;;;;;;;;5026334;28;20174;-65
2022/05/05 05:59:33;;;;;;;14.50;11.50;;;;;;;;;;5021650;28;20048;-65
2022/05/05 06:04:44;;;;;;;17.70;10.98;;;;;;;;;;5043099;28;20128;-65
2022/05/05 06:07:10;;;;;;;24.02;11.77;;;;;;;;;;5026281;28;20045;-64
2022/05/05 06:09:36;;;;;;;18.02;12.15;;;;;;;;;;5020260;28;20071;-65
2022/05/05 06:12:03;;;;;;;20.63;11.57;;;;;;;;;;5029222;28;20385;-66
2022/05/05 06:14:30;;;;;;;17.05;11.73;;;;;;;;;;5037552;28;20049;-65
2022/05/05 06:16:56;;;;;;;19.35;11.65;;;;;;;;;;5018013;28;20052;-65
2022/05/05 06:19:22;;;;;;;17.58;11.85;;;;;;;;;;5040364;28;20076;-65
2022/05/05 06:21:50;;;;;;;19.02;11.32;;;;;;;;;;5003685;28;20469;-65
2022/05/05 06:24:16;;;;;;;20.85;11.00;;;;;;;;;;5021007;28;20053;-65
2022/05/05 06:26:42;;;;;;;17.98;11.55;;;;;;;;;;5038787;28;20187;-65
2022/05/05 06:29:08;;;;;;;19.88;10.13;;;;;;;;;;5042189;28;20045;-65
2022/05/05 06:31:34;;;;;;;16.17;10.88;;;;;;;;;;5023238;28;20063;-65
2022/05/05 06:34:01;;;;;;;17.48;10.13;;;;;;;;;;5024291;28;20147;-65
2022/05/05 06:36:27;;;;;;;20.98;10.82;;;;;;;;;;5016446;28;20639;-66
2022/05/05 06:38:53;;;;;;;17.88;9.73;;;;;;;;;;5042668;28;20077;-65
2022/05/05 06:41:20;;;;;;;15.65;10.20;;;;;;;;;;5043431;28;20048;-65
2022/05/05 06:43:46;;;;;;;16.25;10.32;;;;;;;;;;5018721;28;20049;-65
2022/05/05 06:46:12;;;;;;;16.48;10.13;;;;;;;;;;5037546;28;20668;-65
2022/05/05 06:48:38;;;;;;;16.27;9.60;;;;;;;;;;5034905;28;20086;-65
2022/05/05 06:51:05;;;;;;;17.77;9.43;;;;;;;;;;5040312;28;20454;-65
2022/05/05 06:53:31;;;;;;;16.73;9.75;;;;;;;;;;5028614;28;20033;-65
2022/05/05 06:55:58;;;;;;;15.93;9.15;;;;;;;;;;5007075;28;20128;-65
2022/05/05 06:58:25;;;;;;;15.73;9.77;;;;;;;;;;5026830;28;20131;-65
2022/05/05 07:03:36;;;;;;;16.60;9.10;;;;;;;;;;5047105;28;20041;-65
2022/05/05 07:06:03;;;;;;;13.52;9.07;;;;;;;;;;5042871;28;20112;-65
2022/05/05 07:10:52;;;;;;;17.27;9.57;;;;;;;;;;5017232;28;20578;-65
2022/05/05 07:11:15;;;;;;;;;;;;;;;;;;5021608;28;20076;-65
2022/05/05 07:13:41;;;;;;;13.68;8.80;;;;;;;;;;5040456;28;19917;-65
2022/05/05 07:16:07;;;;;;;13.00;9.05;;;;;;;;;;5044922;28;20120;-65
2022/05/05 07:18:33;;;;;;;11.43;8.00;;;;;;;;;;5029063;28;20042;-65
2022/05/05 07:20:59;;;;;;;17.95;9.00;;;;;;;;;;5036016;28;20041;-65
2022/05/05 07:23:25;;;;;;;17.23;8.50;;;;;;;;;;5038337;28;20047;-65
2022/05/05 07:25:51;;;;;;;14.70;8.07;;;;;;;;;;5036785;28;20387;-65
2022/05/05 07:28:18;;;;;;;15.73;8.02;;;;;;;;;;5021714;28;20121;-65
2022/05/05 07:30:44;;;;;;;17.73;7.43;;;;;;;;;;5021785;28;20128;-65
2022/05/05 07:33:10;;;;;;;18.77;8.27;;;;;;;;;;5019053;28;20501;-65
2022/05/05 07:35:38;;;;;;;14.77;8.30;;;;;;;;;;5032736;28;20497;-65
2022/05/05 07:38:05;;;;;;;16.50;7.32;;;;;;;;;;5020748;28;20539;-65
2022/05/05 07:40:31;;;;;;;15.60;8.32;;;;;;;;;;5040356;28;20041;-65
2022/05/05 07:42:57;;;;;;;14.30;7.68;;;;;;;;;;5040236;28;20048;-65
2022/05/05 07:45:23;;;;;;;15.93;8.02;;;;;;;;;;5035192;28;20054;-66
2022/05/05 07:47:49;;;;;;;14.35;7.63;;;;;;;;;;5035042;28;20056;-66
2022/05/05 07:50:16;;;;;;;13.15;7.85;;;;;;;;;;5043723;28;20044;-66
2022/05/05 07:52:42;;;;;;;17.20;7.55;;;;;;;;;;5039384;28;20030;-66
2022/05/05 07:55:08;;;;;;;14.13;7.45;;;;;;;;;;5035695;28;20041;-66
2022/05/05 07:57:44;;;;;;;13.45;7.40;;;;;;;;;;5023041;28;20041;-66
2022/05/05 08:00:11;;;;;;;13.77;7.05;;;;;;;;;;5020797;28;20041;-66
2022/05/05 08:02:38;;;;;;;16.40;7.78;;;;;;;;;;5023386;28;20041;-65
2022/05/05 08:05:05;;;;;;;13.18;5.82;;;;;;;;;;5040654;28;20048;-65
2022/05/05 08:07:31;;;;;;;14.65;6.13;;;;;;;;;;5020555;28;20397;-65
2022/05/05 08:09:57;;;;;;;13.38;6.70;;;;;;;;;;5036672;28;20052;-66
2022/05/05 08:12:23;;;;;;;12.73;6.55;;;;;;;;;;5034104;28;20052;-65
2022/05/05 08:14:49;;;;;;;12.40;6.93;;;;;;;;;;5036183;28;20080;-65
2022/05/05 08:17:15;;;;;;;12.20;6.20;;;;;;;;;;5041856;28;20045;-65
2022/05/05 08:19:41;;;;;;;14.02;6.25;;;;;;;;;;5032147;28;20056;-65
2022/05/05 08:22:07;;;;;;;12.60;6.70;;;;;;;;;;5014940;28;20128;-65
2022/05/05 08:30:03;;;;;;;12.00;6.50;;;;;;;;;;5014367;28;20128;-66
2022/05/05 08:32:30;;;;;;;10.80;6.40;;;;;;;;;;5040603;28;20029;-66
2022/05/05 08:34:56;;;;;;;10.40;5.93;;;;;;;;;;5017027;28;20532;-66
2022/05/05 08:37:22;;;;;;;13.25;6.40;;;;;;;;;;5017173;28;20127;-66
2022/05/05 08:39:48;;;;;;;11.63;6.55;;;;;;;;;;5016665;28;20053;-65
2022/05/05 08:42:14;;;;;;;17.67;6.63;;;;;;;;;;5020351;28;20469;-65
2022/05/05 08:44:40;;;;;;;12.77;6.30;;;;;;;;;;5017949;28;21288;-66
2022/05/05 08:47:10;;;;;;;10.43;6.18;;;;;;;;;;5036498;28;20037;-66
2022/05/05 08:49:37;;;;;;;9.88;6.25;;;;;;;;;;5018276;28;20033;-66
2022/05/05 08:52:04;;;;;;;14.10;6.55;;;;;;;;;;5042527;28;20040;-66
2022/05/05 08:54:32;;;;;;;10.45;6.25;;;;;;;;;;5031998;28;20041;-66
2022/05/05 08:56:58;;;;;;;10.38;6.13;;;;;;;;;;5035256;28;20037;-66
2022/05/05 08:59:25;;;;;;;8.15;6.13;;;;;;;;;;5023587;28;20473;-66
2022/05/05 09:01:52;;;;;;;11.25;6.63;;;;;;;;;;5021290;28;20037;-66
2022/05/05 09:04:19;;;;;;;9.80;5.90;;;;;;;;;;5020530;28;20049;-66
2022/05/05 09:06:46;;;;;;;8.82;6.28;;;;;;;;;;5041446;28;20095;-66
2022/05/05 09:09:25;;;;;;;14.63;6.35;;;;;;;;;;5022070;28;20132;-66
2022/05/05 09:12:10;;;;;;;10.25;5.80;;;;;;;;;;5022150;28;20540;-66
2022/05/05 09:14:46;;;;;;;12.80;7.30;;;;;;;;;;5035134;28;20037;-66
2022/05/05 09:17:17;;;;;;;11.85;7.15;;;;;;;;;;5040097;28;20584;-66
2022/05/05 09:19:44;;;;;;;17.77;7.00;;;;;;;;;;5014078;28;20049;-66
2022/05/05 09:22:11;;;;;;;14.40;6.97;;;;;;;;;;5031699;28;20053;-66
2022/05/05 09:24:42;;;;;;;10.00;6.70;;;;;;;;;;5044686;28;20037;-66
2022/05/05 09:27:19;;;;;;;11.02;6.38;;;;;;;;;;5017605;28;20610;-66
2022/05/05 09:30:05;;;;;;;9.43;6.40;;;;;;;;;;5016475;28;20049;-66
2022/05/05 09:32:33;;;;;;;11.35;6.85;;;;;;;;;;5014275;28;20060;-66
2022/05/05 09:35:02;;;;;;;9.27;6.13;;;;;;;;;;5032762;28;20065;-66
2022/05/05 09:37:28;;;;;;;16.35;6.35;;;;;;;;;;5016880;28;20092;-66
2022/05/05 09:39:55;;;;;;;11.10;6.00;;;;;;;;;;5014916;28;20124;-66
2022/05/05 09:42:55;;;;;;;12.05;6.78;;;;;;;;;;5032046;28;20041;-66
2022/05/05 09:45:21;;;;;;;15.10;6.07;;;;;;;;;;4982864;28;21195;-66
2022/05/05 09:47:49;;;;;;;9.05;6.35;;;;;;;;;;5016911;28;20485;-66
2022/05/05 09:50:16;;;;;;;8.75;5.55;;;;;;;;;;5030542;28;20037;-65
2022/05/05 09:58:34;;;;;;;10.02;6.50;;;;;;;;;;5013781;28;20045;-66
2022/05/05 10:01:05;;;;;;;9.60;6.00;;;;;;;;;;5014366;28;20053;-66
2022/05/05 10:06:29;;;;;;;11.30;5.90;;;;;;;;;;5015408;28;20045;-66
2022/05/05 10:08:57;;;;;;;25.75;6.10;;;;;;;;;;5015591;28;20057;-66
2022/05/05 10:11:25;;;;;;;72.60;8.65;;;;;;;;;;5016785;28;20512;-66
2022/05/05 10:13:51;;;;;;;14.95;5.82;;;;;;;;;;5014850;28;20036;-66
2022/05/05 10:16:19;;;;;;;12.73;5.80;;;;;;;;;;5015759;28;20045;-66
2022/05/05 10:18:45;;;;;;;8.98;6.43;;;;;;;;;;5029670;28;20053;-66
2022/05/05 10:21:14;;;;;;;9.02;6.60;;;;;;;;;;5015837;28;20061;-66
2022/05/05 10:23:48;;;;;;;15.10;6.10;;;;;;;;;;5028685;28;21150;-66
2022/05/05 10:26:14;;;;;;;11.25;6.78;;;;;;;;;;5017207;28;20128;-66
2022/05/05 10:28:40;;;;;;;8.30;6.45;;;;;;;;;;4998458;28;20398;-66
2022/05/05 10:31:10;;;;;;;11.57;6.82;;;;;;;;;;5031505;28;20047;-66
2022/05/05 10:33:55;;;;;;;14.68;7.55;;;;;;;;;;5007526;28;20052;-66
2022/05/05 10:36:23;;;;;;;12.55;7.60;;;;;;;;;;5031816;28;20049;-66
2022/05/05 10:38:49;;;;;;;9.80;6.88;;;;;;;;;;5015784;28;20159;-66
2022/05/05 10:41:34;;;;;;;14.68;7.70;;;;;;;;;;5028803;28;20392;-66
2022/05/05 10:44:19;;;;;;;10.55;6.93;;;;;;;;;;5025949;28;20113;-66
2022/05/05 10:46:52;;;;;;;36.80;8.40;;;;;;;;;;5032137;28;20056;-66
2022/05/05 10:49:37;;;;;;;11.13;7.63;;;;;;;;;;5032668;28;20123;-67
2022/05/05 10:52:12;;;;;;;10.07;6.80;;;;;;;;;;5016635;28;20037;-67
2022/05/05 10:54:39;;;;;;;11.90;7.38;;;;;;;;;;5032238;28;20053;-66
2022/05/05 10:57:24;;;;;;;10.02;7.35;;;;;;;;;;5032963;28;20501;-66
2022/05/05 11:00:12;;;;;;;12.60;8.02;;;;;;;;;;5032987;28;20549;-66
2022/05/05 11:02:39;;;;;;;11.57;7.57;;;;;;;;;;5015939;28;20124;-66
2022/05/05 11:05:21;;;;;;;10.25;7.65;;;;;;;;;;5032232;28;20076;-66
2022/05/05 11:07:51;;;;;;;11.98;7.28;;;;;;;;;;5016217;28;20125;-66
2022/05/05 11:13:35;;;;;;;10.57;7.03;;;;;;;;;;4985387;28;20069;-66
2022/05/05 11:22:15;;;;;;;14.80;6.90;;;;;;;;;;5031747;28;20454;-66
2022/05/05 11:24:45;;;;;;;14.55;6.75;;;;;;;;;;5030387;28;20448;-66
2022/05/05 11:27:15;;;;;;;10.88;6.65;;;;;;;;;;4999677;28;20125;-66
2022/05/05 11:29:45;;;;;;;10.77;6.70;;;;;;;;;;5015025;28;20049;-66
2022/05/05 11:32:11;;;;;;;12.35;6.18;;;;;;;;;;5016797;28;20053;-66
2022/05/05 11:34:39;;;;;;;18.70;6.85;;;;;;;;;;5030914;28;20112;-67
2022/05/05 11:37:07;;;;;;;12.90;7.28;;;;;;;;;;5013632;28;20079;-66
2022/05/05 11:39:36;;;;;;;8.93;6.55;;;;;;;;;;5031499;28;20563;-66
2022/05/05 11:42:06;;;;;;;13.77;6.88;;;;;;;;;;5015389;28;20090;-64
2022/05/05 11:44:36;;;;;;;12.68;7.85;;;;;;;;;;5013943;28;20070;-67
2022/05/05 11:47:11;;;;;;;11.70;7.47;;;;;;;;;;5029732;28;20045;-67
2022/05/05 11:49:37;;;;;;;11.80;8.20;;;;;;;;;;5014990;28;20045;-65
2022/05/05 11:52:03;;;;;;;11.38;8.13;;;;;;;;;;5015989;28;20037;-66
2022/05/05 11:54:32;;;;;;;11.23;7.90;;;;;;;;;;5030331;28;20056;-64
2022/05/05 11:56:58;;;;;;;11.90;8.75;;;;;;;;;;5014235;28;20120;-66
2022/05/05 12:02:11;;;;;;;9.90;7.60;;;;;;;;;;5030913;28;20116;-66
2022/05/05 12:04:47;;;;;;;11.13;7.30;;;;;;;;;;4996956;28;20199;-66
2022/05/05 12:07:21;;;;;;;10.65;7.70;;;;;;;;;;5014054;28;20040;-66
2022/05/05 12:09:54;;;;;;;11.57;7.32;;;;;;;;;;5018863;28;20053;-66
2022/05/05 12:12:20;;;;;;;10.05;7.00;;;;;;;;;;5019807;28;20055;-67
2022/05/05 12:14:55;;;;;;;10.07;6.55;;;;;;;;;;5020945;28;20041;-65
2022/05/05 12:17:34;;;;;;;10.38;6.65;;;;;;;;;;5044442;28;20048;-65
2022/05/05 12:20:03;;;;;;;8.60;5.80;;;;;;;;;;5019305;28;20041;-64
2022/05/05 12:22:30;;;;;;;10.63;6.68;;;;;;;;;;5017178;28;20049;-64
2022/05/05 12:25:23;;;;;;;9.77;7.10;;;;;;;;;;5014541;28;20103;-65
2022/05/05 12:27:59;;;;;;;8.27;6.40;;;;;;;;;;5013554;28;20056;-65
2022/05/05 12:30:34;;;;;;;18.65;6.50;;;;;;;;;;5030826;28;20037;-65
2022/05/05 12:33:00;;;;;;;7.75;6.38;;;;;;;;;;5033262;28;20278;-65
2022/05/05 12:35:31;;;;;;;11.07;6.00;;;;;;;;;;5031232;28;20041;-65
2022/05/05 12:38:00;;;;;;;10.20;6.00;;;;;;;;;;5015751;28;20065;-65
2022/05/05 12:40:27;;;;;;;10.85;6.13;;;;;;;;;;5014804;28;20069;-66
2022/05/05 12:43:00;;;;;;;7.35;5.30;;;;;;;;;;5029947;28;20041;-66
2022/05/05 12:45:29;;;;;;;9.35;4.80;;;;;;;;;;5028980;28;20057;-66
2022/05/05 12:47:58;;;;;;;7.57;4.57;;;;;;;;;;4999393;28;20090;-66
2022/05/05 12:50:30;;;;;;;7.10;5.35;;;;;;;;;;5029054;28;20131;-66
2022/05/05 13:01:24;;;;;;;7.03;4.43;;;;;;;;;;5017661;28;20107;-66
2022/05/05 13:03:53;;;;;;;6.45;4.05;;;;;;;;;;5016950;28;20111;-66
2022/05/05 13:06:19;;;;;;;5.53;4.40;;;;;;;;;;5016877;28;20409;-66
2022/05/05 13:08:46;;;;;;;6.97;4.65;;;;;;;;;;5016762;28;20056;-66
2022/05/05 13:11:14;;;;;;;5.45;3.83;;;;;;;;;;5016406;28;20176;-66
2022/05/05 13:13:40;;;;;;;6.43;4.70;;;;;;;;;;5017045;28;20041;-65
2022/05/05 13:16:06;;;;;;;4.90;3.72;;;;;;;;;;5031517;28;20678;-66
2022/05/05 13:18:32;;;;;;;5.22;4.10;;;;;;;;;;5016471;28;20069;-66
2022/05/05 13:20:58;;;;;;;5.78;3.90;;;;;;;;;;5030345;28;20721;-66
2022/05/05 13:23:24;;;;;;;15.18;4.38;;;;;;;;;;5034103;28;20064;-66
2022/05/05 13:25:50;;;;;;;5.82;3.95;;;;;;;;;;5031426;28;20042;-66
2022/05/05 13:28:16;;;;;;;4.85;3.78;;;;;;;;;;5019278;28;20052;-66
2022/05/05 13:30:42;;;;;;;5.68;3.47;;;;;;;;;;5033528;28;20048;-66
2022/05/05 13:33:08;;;;;;;9.10;4.30;;;;;;;;;;5016491;28;20124;-66
2022/05/05 13:35:34;;;;;;;6.50;5.05;;;;;;;;;;5032232;28;20067;-66
2022/05/05 13:38:00;;;;;;;6.40;4.28;;;;;;;;;;5000903;28;20095;-66
2022/05/05 13:40:27;;;;;;;5.10;3.55;;;;;;;;;;4998221;28;20417;-66
2022/05/05 13:42:53;;;;;;;5.97;3.60;;;;;;;;;;5015363;28;20456;-66
2022/05/05 13:45:19;;;;;;;5.90;2.85;;;;;;;;;;5031244;28;20140;-66
2022/05/05 13:47:46;;;;;;;3.78;2.83;;;;;;;;;;5017937;28;20400;-66
2022/05/05 13:50:12;;;;;;;5.32;3.90;;;;;;;;;;5016049;28;20029;-66
2022/05/05 13:52:43;;;;;;;7.78;3.42;;;;;;;;;;5029959;28;20107;-66
2022/05/05 13:55:09;;;;;;;6.78;3.70;;;;;;;;;;5030482;28;20045;-66
2022/05/05 13:57:37;;;;;;;8.13;5.07;;;;;;;;;;5029751;28;20051;-66
2022/05/05 14:00:04;;;;;;;13.05;5.20;;;;;;;;;;5015610;28;20497;-66
2022/05/05 14:02:30;;;;;;;9.82;5.38;;;;;;;;;;5029561;28;20076;-66
2022/05/05 14:04:56;;;;;;;8.32;5.20;;;;;;;;;;5016485;28;20104;-66
2022/05/05 14:12:10;;;;;;;8.25;4.90;;;;;;;;;;5031782;28;20092;-66
2022/05/05 14:12:54;;;;;;;13.10;6.30;;;;;;;;;;5031033;28;20041;-66
2022/05/05 14:15:20;;;;;;;9.82;5.60;;;;;;;;;;5030040;28;20061;-66
2022/05/05 14:17:47;;;;;;;8.23;5.63;;;;;;;;;;5030679;28;20037;-66
2022/05/05 14:20:13;;;;;;;10.88;6.22;;;;;;;;;;5028509;28;20060;-66
2022/05/05 14:22:40;;;;;;;7.78;5.80;;;;;;;;;;5014382;28;20033;-66
2022/05/05 14:25:10;;;;;;;10.48;6.28;;;;;;;;;;5029142;28;20160;-67
2022/05/05 14:27:40;;;;;;;7.80;4.95;;;;;;;;;;5030230;28;20416;-66
2022/05/05 14:30:06;;;;;;;7.38;4.95;;;;;;;;;;5012870;28;20045;-66
2022/05/05 14:32:33;;;;;;;9.00;5.32;;;;;;;;;;5015438;28;20042;-66
2022/05/05 14:34:59;;;;;;;8.13;5.65;;;;;;;;;;5031066;28;20046;-66
2022/05/05 14:37:26;;;;;;;7.53;5.80;;;;;;;;;;5029086;28;20071;-66
2022/05/05 14:39:52;;;;;;;7.75;5.20;;;;;;;;;;4997088;28;20041;-67
2022/05/05 14:42:18;;;;;;;8.00;6.03;;;;;;;;;;5029458;28;20036;-66
2022/05/05 14:44:44;;;;;;;9.93;5.82;;;;;;;;;;5014553;28;20497;-66
2022/05/05 14:47:11;;;;;;;11.20;6.95;;;;;;;;;;4999552;28;20163;-66
2022/05/05 14:49:37;;;;;;;10.60;6.88;;;;;;;;;;5028863;28;20056;-66
2022/05/05 14:52:04;;;;;;;10.07;6.22;;;;;;;;;;5016331;28;20481;-66
2022/05/05 14:54:30;;;;;;;15.98;6.60;;;;;;;;;;5015505;28;20096;-66
2022/05/05 14:56:57;;;;;;;10.40;6.97;;;;;;;;;;5016634;28;20819;-65
2022/05/05 14:59:23;;;;;;;15.35;7.60;;;;;;;;;;5014619;28;20500;-66
2022/05/05 15:01:49;;;;;;;13.18;8.18;;;;;;;;;;5014586;28;20147;-66
2022/05/05 15:04:16;;;;;;;11.02;6.97;;;;;;;;;;5017867;28;20045;-67
2022/05/05 15:06:47;;;;;;;9.55;6.35;;;;;;;;;;5031265;28;20509;-66
2022/05/05 15:09:14;;;;;;;10.63;6.95;;;;;;;;;;5015536;28;20045;-66
2022/05/05 15:11:40;;;;;;;14.73;7.78;;;;;;;;;;5015200;28;20042;-66
2022/05/05 15:14:06;;;;;;;12.13;8.77;;;;;;;;;;5029599;28;20043;-66
2022/05/05 15:16:34;;;;;;;15.50;9.23;;;;;;;;;;5032760;28;20049;-66
2022/05/05 15:19:00;;;;;;;14.23;9.55;;;;;;;;;;5040386;28;20052;-66
2022/05/05 15:21:26;;;;;;;15.38;9.93;;;;;;;;;;5044319;28;20040;-66
2022/05/05 15:23:54;;;;;;;16.58;11.25;;;;;;;;;;5039405;28;20484;-66
2022/05/05 15:26:20;;;;;;;16.98;11.13;;;;;;;;;;5017611;28;20493;-66
2022/05/05 15:28:46;;;;;;;17.60;11.77;;;;;;;;;;5014667;28;20037;-65